Terminal Aerodrome Forecast
Issued by NWS

Home | Current Version | Previous Version | Text Only | Print | Product List | Glossary On
Versions: 1 2 3 4 5 6 7 8 9 10 11 12 13 14 15 16 17 18 19 20
000
FTUS44 KOHX 261700 RRA
TAFCKV
TAF
KCKV 261741Z 2618/2718 14004KT P6SM SCT120 BKN250
     FM270000 20006KT P6SM -RA OVC050
     FM270300 28007KT P6SM -RA OVC025
     FM270700 30008KT 4SM -SN BR OVC015
     FM270900 32008KT P6SM OVC015
     FM271600 33008KT P6SM BKN030=

USA.gov is the U.S. government's official web portal to all federal, state and local government web resources and services.